Time;durP1;ratioP1;P1;durP2;ratioP2;P2;SDS_P1;SDS_P2;PMS_P1;PMS_P2;Temp;Humidity;BMP_temperature;BMP_pressure;BME280_temperature;BME280_humidity;BME280_pressure;Samples;Min_cycle;Max_cycle;Signal;HPM_P1;HPM_P2
2022/09/04 00:01:24;;;;;;;6.75;1.30;;;17.30;70.20;;;;;;4998159;28;20107;-85
2022/09/04 00:03:59;;;;;;;2.83;1.65;;;17.30;70.60;;;;;;5014975;28;20038;-88
2022/09/04 00:06:31;;;;;;;2.08;1.10;;;17.20;71.00;;;;;;4997443;28;20057;-85
2022/09/04 00:09:15;;;;;;;2.67;1.20;;;17.20;71.10;;;;;;4997456;28;20056;-87
2022/09/04 00:11:51;;;;;;;6.57;1.42;;;17.20;71.40;;;;;;5015190;28;20050;-87
2022/09/04 00:14:20;;;;;;;5.38;1.40;;;17.20;71.10;;;;;;4997349;28;20042;-85
2022/09/04 00:16:59;;;;;;;2.17;1.20;;;17.10;71.70;;;;;;4997181;28;20058;-91
2022/09/04 00:20:00;;;;;;;4.82;1.42;;;17.10;72.20;;;;;;4997304;28;20054;-86
2022/09/04 00:22:51;;;;;;;;;;;17.10;73.30;;;;;;4997952;28;20104;-86
2022/09/04 00:25:46;;;;;;;5.85;1.10;;;17.00;72.90;;;;;;4997226;28;19926;-86
2022/09/04 00:28:24;;;;;;;3.88;1.30;;;16.90;72.90;;;;;;4997233;28;20085;-86
2022/09/04 00:30:58;;;;;;;3.15;1.38;;;16.90;73.00;;;;;;5014491;28;20046;-90
2022/09/04 00:33:53;;;;;;;3.88;1.50;;;16.90;74.50;;;;;;4980872;28;20089;-85
2022/09/04 00:36:23;;;;;;;2.55;1.30;;;16.80;74.80;;;;;;4978539;28;20049;-86
2022/09/04 00:39:01;;;;;;;2.65;1.20;;;16.80;74.20;;;;;;5014322;28;20096;-85
2022/09/04 00:41:42;;;;;;;3.42;1.00;;;16.80;75.60;;;;;;4996932;28;20104;-85
2022/09/04 00:44:17;;;;;;;;;;;16.80;76.60;;;;;;5015007;28;20460;-86
2022/09/04 00:47:34;;;;;;;5.78;1.30;;;16.70;75.90;;;;;;5014286;28;19921;-85
2022/09/04 00:50:06;;;;;;;6.32;1.63;;;16.70;77.50;;;;;;4980504;28;20046;-86
2022/09/04 00:52:53;;;;;;;2.75;1.00;;;16.70;77.20;;;;;;4997556;28;20410;-86
2022/09/04 00:55:55;;;;;;;5.07;1.40;;;16.70;78.00;;;;;;4980542;28;20056;-86
2022/09/04 00:58:47;;;;;;;5.00;1.60;;;16.60;78.10;;;;;;4995984;28;20403;-86
2022/09/04 01:01:16;;;;;;;;;;;16.60;79.30;;;;;;4980889;28;20046;-86
2022/09/04 01:04:09;;;;;;;3.78;1.70;;;16.50;79.00;;;;;;4996415;28;20387;-87
2022/09/04 01:07:08;;;;;;;3.47;1.30;;;16.50;79.40;;;;;;4996544;28;20517;-86
2022/09/04 01:09:57;;;;;;;4.65;1.38;;;16.50;80.10;;;;;;5007927;28;20460;-86
2022/09/04 01:12:44;;;;;;;1.35;1.15;;;16.50;80.70;;;;;;5014124;28;20049;-86
2022/09/04 01:15:30;;;;;;;4.43;1.33;;;16.40;82.60;;;;;;4996315;28;20075;-86
2022/09/04 01:18:06;;;;;;;6.80;1.50;;;16.40;83.20;;;;;;4980731;28;20054;-86
2022/09/04 01:21:05;;;;;;;3.45;1.45;;;16.30;84.10;;;;;;4996638;28;20050;-86
2022/09/04 01:23:49;;;;;;;6.57;1.50;;;16.30;87.10;;;;;;4980014;28;20127;-86
2022/09/04 01:26:26;;;;;;;5.28;1.40;;;16.30;88.50;;;;;;4996490;28;20049;-86
2022/09/04 01:29:15;;;;;;;2.45;1.25;;;16.20;89.70;;;;;;5013326;28;20121;-86
2022/09/04 01:31:59;;;;;;;3.47;1.40;;;16.20;90.50;;;;;;5013428;28;20136;-86
2022/09/04 01:34:37;;;;;;;4.07;1.67;;;16.20;91.90;;;;;;4996258;28;20038;-86
2022/09/04 01:37:14;;;;;;;3.33;1.42;;;16.20;91.50;;;;;;4980308;28;20056;-87
2022/09/04 01:39:45;;;;;;;5.57;1.40;;;16.10;93.20;;;;;;4996436;28;20633;-86
2022/09/04 01:42:25;;;;;;;;;;;16.10;93.60;;;;;;4996434;28;20124;-86
2022/09/04 01:44:51;;;;;;;2.80;1.40;;;16.00;92.70;;;;;;4980221;28;19921;-85
2022/09/04 01:47:29;;;;;;;3.72;1.30;;;16.00;93.90;;;;;;5013677;28;20446;-87
2022/09/04 01:50:25;;;;;;;3.85;1.77;;;16.00;93.90;;;;;;5014058;28;20391;-86
2022/09/04 01:53:09;;;;;;;3.45;1.33;;;16.00;94.60;;;;;;4997316;28;20097;-86
2022/09/04 01:55:54;;;;;;;4.90;1.58;;;16.00;94.50;;;;;;4996686;28;20061;-86
2022/09/04 01:59:02;;;;;;;7.53;1.70;;;15.90;94.30;;;;;;4995601;28;20054;-86
2022/09/04 02:01:38;;;;;;;8.07;1.63;;;15.90;94.70;;;;;;4996273;28;20408;-85
2022/09/04 02:04:27;;;;;;;3.53;1.30;;;15.80;96.20;;;;;;5013336;28;20085;-86
2022/09/04 02:06:52;;;;;;;15.65;1.52;;;15.80;96.50;;;;;;4979891;28;20061;-85
2022/09/04 02:09:42;;;;;;;3.13;1.60;;;15.70;97.30;;;;;;5013116;28;20062;-86
2022/09/04 02:12:41;;;;;;;3.83;1.40;;;15.70;97.40;;;;;;5017272;28;20050;-86
2022/09/04 02:15:38;;;;;;;2.80;1.40;;;15.60;97.20;;;;;;5017018;28;20060;-87
2022/09/04 02:18:31;;;;;;;5.53;1.67;;;15.60;98.20;;;;;;5017246;28;20077;-86
2022/09/04 02:21:24;;;;;;;2.40;1.33;;;15.50;98.10;;;;;;4983605;28;20060;-88
2022/09/04 02:24:04;;;;;;;4.18;1.55;;;15.50;98.30;;;;;;5016685;28;20107;-86
2022/09/04 02:26:41;;;;;;;3.45;1.60;;;15.40;98.90;;;;;;4983770;28;20133;-86
2022/09/04 02:29:35;;;;;;;3.95;1.38;;;15.40;99.50;;;;;;4983089;28;20057;-86
2022/09/04 02:32:13;;;;;;;3.67;1.58;;;15.40;99.90;;;;;;4999539;28;20050;-86
2022/09/04 02:34:53;;;;;;;4.03;1.60;;;15.30;99.90;;;;;;4999438;28;20046;-86
2022/09/04 02:37:30;;;;;;;4.57;1.70;;;15.30;99.90;;;;;;4999128;28;20495;-86
2022/09/04 02:40:05;;;;;;;3.35;1.63;;;15.20;99.90;;;;;;5017055;28;20132;-85
2022/09/04 02:42:49;;;;;;;7.20;1.50;;;15.20;99.90;;;;;;4982860;28;20062;-85
2022/09/04 02:45:26;;;;;;;5.65;1.98;;;15.20;99.90;;;;;;4999307;28;20069;-86
2022/09/04 02:48:06;;;;;;;8.52;1.92;;;15.20;99.90;;;;;;4983485;28;20491;-86
2022/09/04 02:50:45;;;;;;;2.60;1.60;;;15.10;99.90;;;;;;4999037;28;20053;-86
2022/09/04 02:53:50;;;;;;;2.30;1.38;;;15.20;99.90;;;;;;4998778;28;20061;-86
2022/09/04 02:56:43;;;;;;;5.00;1.48;;;15.10;99.90;;;;;;4998781;28;20112;-87
2022/09/04 02:59:51;;;;;;;1.98;1.63;;;15.10;99.90;;;;;;5014029;28;20100;-86
2022/09/04 03:02:35;;;;;;;3.35;1.77;;;15.10;99.90;;;;;;4960666;28;20085;-86
2022/09/04 03:05:10;;;;;;;3.92;1.60;;;15.10;99.90;;;;;;5016075;28;20046;-86
2022/09/04 03:07:47;;;;;;;3.78;1.80;;;15.00;99.90;;;;;;4998491;28;20458;-85
2022/09/04 03:10:18;;;;;;;2.90;1.77;;;15.00;99.90;;;;;;4966445;28;20065;-87
2022/09/04 03:12:49;;;;;;;6.03;1.67;;;15.00;99.90;;;;;;4996480;28;20141;-86
2022/09/04 03:15:44;;;;;;;4.20;1.70;;;14.90;99.90;;;;;;4979003;28;20050;-86
2022/09/04 03:18:18;;;;;;;3.03;1.67;;;14.90;99.90;;;;;;4996046;28;20046;-86
2022/09/04 03:20:56;;;;;;;4.53;1.60;;;14.90;99.90;;;;;;4996501;28;20124;-86
2022/09/04 03:23:45;;;;;;;4.18;1.60;;;14.90;99.90;;;;;;4961880;28;20566;-85
2022/09/04 03:26:31;;;;;;;3.75;1.65;;;14.80;99.90;;;;;;4978792;28;20049;-86
2022/09/04 03:29:23;;;;;;;5.38;2.03;;;14.80;99.90;;;;;;4995907;28;20104;-85
2022/09/04 03:31:57;;;;;;;4.35;1.35;;;14.80;99.90;;;;;;4963204;28;20054;-86
2022/09/04 03:34:26;;;;;;;8.43;2.38;;;14.80;99.90;;;;;;4978518;28;20054;-86
2022/09/04 03:37:05;;;;;;;5.60;1.90;;;14.70;99.90;;;;;;4995869;28;20046;-86
2022/09/04 03:39:44;;;;;;;3.22;1.60;;;14.70;99.90;;;;;;4979070;28;20061;-86
2022/09/04 03:42:26;;;;;;;4.93;1.85;;;14.70;99.90;;;;;;4962600;28;20085;-86
2022/09/04 03:45:11;;;;;;;3.83;2.60;;;14.60;99.90;;;;;;4978583;28;20050;-86
2022/09/04 03:47:57;;;;;;;2.97;1.80;;;14.60;99.90;;;;;;4978646;28;20054;-86
2022/09/04 03:50:27;;;;;;;4.20;1.70;;;14.60;99.90;;;;;;4979043;28;20052;-85
2022/09/04 03:53:37;;;;;;;5.93;1.85;;;14.60;99.90;;;;;;4978222;28;20050;-86
2022/09/04 03:56:16;;;;;;;3.17;2.00;;;14.60;99.90;;;;;;4955960;28;20169;-86
2022/09/04 03:59:28;;;;;;;5.10;2.00;;;14.50;99.90;;;;;;4995452;28;20388;-85
2022/09/04 04:02:18;;;;;;;4.35;1.75;;;14.50;99.90;;;;;;4995404;28;20423;-85
2022/09/04 04:05:10;;;;;;;2.50;1.92;;;14.50;99.90;;;;;;4978170;28;20050;-87
2022/09/04 04:08:07;;;;;;;3.92;1.83;;;14.50;99.90;;;;;;4995491;28;20053;-85
2022/09/04 04:11:04;;;;;;;3.55;1.80;;;14.40;99.90;;;;;;4993100;28;20404;-86
2022/09/04 04:13:44;;;;;;;3.33;1.80;;;14.40;99.90;;;;;;4978085;28;20057;-86
2022/09/04 04:16:39;;;;;;;4.72;2.10;;;14.40;99.90;;;;;;4978162;28;20196;-86
2022/09/04 04:19:46;;;;;;;5.43;1.75;;;14.40;99.90;;;;;;4978072;28;20058;-86
2022/09/04 04:22:50;;;;;;;6.72;2.30;;;14.30;99.90;;;;;;4994736;28;20093;-85
2022/09/04 04:25:49;;;;;;;5.20;2.10;;;14.30;99.90;;;;;;4977946;28;20055;-86
2022/09/04 04:28:36;;;;;;;2.97;1.92;;;14.20;99.90;;;;;;4961382;28;20057;-86
2022/09/04 04:31:19;;;;;;;5.28;1.88;;;14.20;99.90;;;;;;4977661;28;20053;-85
2022/09/04 04:34:17;;;;;;;4.00;2.00;;;14.10;99.90;;;;;;4994894;28;20042;-85
2022/09/04 04:37:00;;;;;;;4.72;1.80;;;14.20;99.90;;;;;;4994649;28;20057;-86
2022/09/04 04:39:59;;;;;;;4.80;2.15;;;14.10;99.90;;;;;;4976871;28;20100;-87
2022/09/04 04:43:04;;;;;;;4.47;2.17;;;14.20;99.90;;;;;;4970879;28;20062;-86
2022/09/04 04:45:53;;;;;;;5.20;2.28;;;14.20;99.90;;;;;;4976824;28;20105;-86
2022/09/04 04:48:48;;;;;;;4.03;2.03;;;14.20;99.90;;;;;;4977538;28;20129;-86
2022/09/04 04:51:24;;;;;;;3.33;1.83;;;14.20;99.90;;;;;;4925234;28;20098;-85
2022/09/04 04:54:19;;;;;;;2.95;1.77;;;14.20;99.90;;;;;;4994588;28;20058;-86
2022/09/04 04:57:11;;;;;;;5.43;1.92;;;14.20;99.90;;;;;;4994545;28;20135;-86
2022/09/04 05:00:18;;;;;;;4.57;2.00;;;14.20;99.90;;;;;;4963752;28;20054;-85
2022/09/04 05:03:03;;;;;;;6.88;2.03;;;14.20;99.90;;;;;;4977200;28;20051;-86
2022/09/04 05:05:58;;;;;;;5.68;2.33;;;14.20;99.90;;;;;;4960634;28;20074;-86
2022/09/04 05:08:43;;;;;;;4.63;2.13;;;14.20;99.90;;;;;;4978513;28;20054;-86
2022/09/04 05:11:21;;;;;;;4.20;2.17;;;14.20;99.90;;;;;;4996936;28;20058;-86
2022/09/04 05:14:18;;;;;;;4.68;1.98;;;14.20;99.90;;;;;;4996714;28;20061;-86
2022/09/04 05:16:58;;;;;;;7.45;2.20;;;14.30;99.90;;;;;;5013743;28;20058;-86
2022/09/04 05:19:24;;;;;;;5.43;2.10;;;14.30;99.90;;;;;;5014408;28;20050;-86
2022/09/04 05:22:07;;;;;;;2.90;2.03;;;14.30;99.90;;;;;;5013817;28;20060;-86
2022/09/04 05:24:41;;;;;;;4.47;1.80;;;14.30;99.90;;;;;;5013664;28;20124;-86
2022/09/04 05:27:22;;;;;;;3.58;1.80;;;14.30;99.90;;;;;;4996031;28;20046;-86
2022/09/04 05:30:18;;;;;;;8.90;2.15;;;14.40;99.90;;;;;;4996031;28;20050;-90
2022/09/04 05:33:05;;;;;;;7.68;3.00;;;14.40;99.90;;;;;;5012014;28;20065;-86
2022/09/04 05:35:34;;;;;;;4.57;2.00;;;14.40;99.90;;;;;;5013510;28;20053;-85
2022/09/04 05:38:12;;;;;;;5.43;2.00;;;14.50;99.90;;;;;;5013299;28;20045;-86
2022/09/04 05:41:00;;;;;;;4.75;1.83;;;14.50;99.90;;;;;;5013666;28;20085;-86
2022/09/04 05:43:36;;;;;;;4.45;2.20;;;14.60;99.90;;;;;;5014015;28;20041;-86
2022/09/04 05:46:11;;;;;;;3.35;2.20;;;14.60;99.90;;;;;;4997823;28;20129;-87
2022/09/04 05:48:51;;;;;;;5.38;2.15;;;14.70;99.90;;;;;;5000371;28;20104;-87
2022/09/04 05:51:23;;;;;;;7.53;2.40;;;14.70;99.90;;;;;;5000454;28;20096;-86
2022/09/04 05:54:26;;;;;;;5.20;2.55;;;14.80;99.90;;;;;;5000291;28;20054;-85
2022/09/04 05:56:55;;;;;;;3.67;2.38;;;14.80;99.90;;;;;;5000108;28;20038;-87
2022/09/04 06:00:01;;;;;;;5.88;2.15;;;14.90;99.90;;;;;;4999748;28;20057;-85
2022/09/04 06:03:00;;;;;;;7.97;2.50;;;14.90;99.90;;;;;;4999788;28;20483;-85
2022/09/04 06:05:57;;;;;;;8.20;2.60;;;15.00;99.90;;;;;;4999895;28;20057;-86
2022/09/04 06:08:50;;;;;;;3.42;2.20;;;15.10;99.90;;;;;;5000045;28;20081;-86
2022/09/04 06:11:50;;;;;;;3.53;2.55;;;15.10;99.90;;;;;;4957578;28;20502;-87
2022/09/04 06:14:41;;;;;;;6.50;2.65;;;15.20;99.90;;;;;;5017663;28;20046;-85
2022/09/04 06:17:13;;;;;;;5.88;2.45;;;15.20;99.90;;;;;;5008618;28;20033;-85
2022/09/04 06:20:00;;;;;;;5.38;2.55;;;15.20;99.90;;;;;;5036233;28;20082;-86
2022/09/04 06:22:58;;;;;;;4.28;2.20;;;15.20;99.90;;;;;;5036599;28;20102;-86
2022/09/04 06:25:51;;;;;;;4.35;2.40;;;15.30;99.90;;;;;;4982938;28;20092;-85
2022/09/04 06:28:37;;;;;;;4.85;2.53;;;15.30;99.90;;;;;;5019116;28;20045;-87
2022/09/04 06:31:17;;;;;;;5.03;2.70;;;15.30;99.90;;;;;;5036240;28;20560;-85
2022/09/04 06:34:02;;;;;;;3.45;2.00;;;15.40;99.90;;;;;;5019037;28;20549;-85
2022/09/04 06:36:37;;;;;;;5.68;2.63;;;15.40;99.90;;;;;;5014413;28;20060;-85
2022/09/04 06:39:27;;;;;;;4.82;2.25;;;15.40;99.90;;;;;;5000033;28;20050;-86
2022/09/04 06:42:05;;;;;;;4.78;2.67;;;15.50;99.90;;;;;;5011428;28;20399;-86
2022/09/04 06:44:49;;;;;;;5.63;2.30;;;15.50;99.90;;;;;;5051725;28;20045;-86
2022/09/04 06:47:50;;;;;;;7.05;3.00;;;15.60;99.90;;;;;;5051976;28;20053;-85
2022/09/04 06:50:30;;;;;;;5.53;2.70;;;15.60;99.90;;;;;;5018709;28;20045;-84
2022/09/04 06:53:34;;;;;;;8.43;2.42;;;15.70;99.90;;;;;;5017287;28;20555;-85
2022/09/04 06:56:32;;;;;;;5.28;2.65;;;15.80;99.90;;;;;;4957147;28;20050;-86
2022/09/04 06:59:20;;;;;;;5.15;2.70;;;15.90;99.90;;;;;;5016925;28;20087;-86
2022/09/04 07:02:03;;;;;;;3.58;2.85;;;16.10;99.90;;;;;;5000870;28;20050;-85
2022/09/04 07:04:44;;;;;;;3.53;2.30;;;16.20;99.90;;;;;;5034543;28;20494;-85
2022/09/04 07:07:41;;;;;;;5.68;2.83;;;16.30;99.90;;;;;;5017119;28;20175;-85
2022/09/04 07:10:09;;;;;;;5.43;2.50;;;16.40;99.90;;;;;;5034385;28;20463;-85
2022/09/04 07:12:56;;;;;;;4.00;2.25;;;16.50;99.90;;;;;;5034300;28;20521;-86
2022/09/04 07:15:45;;;;;;;6.88;3.42;;;16.60;99.90;;;;;;5017114;28;20498;-86
2022/09/04 07:18:21;;;;;;;3.63;2.45;;;16.80;99.90;;;;;;5001643;28;20048;-86
2022/09/04 07:21:14;;;;;;;4.60;2.70;;;16.90;99.90;;;;;;5017116;28;20103;-86
2022/09/04 07:23:55;;;;;;;5.70;2.88;;;17.10;99.90;;;;;;5012871;28;20057;-87
2022/09/04 07:26:36;;;;;;;;;;;17.20;99.90;;;;;;5014391;28;20056;-86
2022/09/04 07:29:32;;;;;;;3.97;2.50;;;17.30;99.90;;;;;;5001520;28;19921;-88
2022/09/04 07:32:30;;;;;;;4.65;2.63;;;17.50;99.90;;;;;;5019292;28;20507;-88
2022/09/04 07:35:38;;;;;;;6.78;2.72;;;17.60;99.90;;;;;;4975243;28;20057;-88
2022/09/04 07:38:16;;;;;;;4.90;2.80;;;17.80;99.90;;;;;;4955214;29;20051;-89
2022/09/04 07:41:09;;;;;;;7.70;2.90;;;17.90;99.90;;;;;;4955288;29;20043;-87
2022/09/04 07:43:38;;;;;;;8.45;2.55;;;18.10;99.90;;;;;;4998923;28;20072;-87
2022/09/04 07:46:24;;;;;;;4.15;2.45;;;18.20;99.90;;;;;;5050735;28;20104;-88
2022/09/04 07:49:03;;;;;;;3.28;2.28;;;18.30;99.90;;;;;;5035132;28;20050;-89
2022/09/04 07:51:40;;;;;;;4.47;2.38;;;18.50;99.90;;;;;;5034963;28;20124;-90
2022/09/04 07:54:17;;;;;;;5.88;2.40;;;18.60;99.90;;;;;;5017894;28;20057;-88
2022/09/04 07:57:02;;;;;;;6.05;2.50;;;18.80;99.90;;;;;;5001325;28;20107;-89
2022/09/04 07:59:40;;;;;;;4.55;2.38;;;18.90;99.20;;;;;;5017508;28;20056;-89
2022/09/04 08:02:33;;;;;;;7.32;2.60;;;19.10;99.90;;;;;;5017699;28;20050;-89
2022/09/04 08:05:04;;;;;;;5.38;2.50;;;19.20;99.90;;;;;;5017949;28;20053;-89
2022/09/04 08:07:33;;;;;;;7.22;2.70;;;19.30;99.70;;;;;;5001611;28;20135;-88
2022/09/04 08:10:17;;;;;;;8.10;2.58;;;19.40;99.90;;;;;;4999710;28;20208;-89
2022/09/04 08:13:01;;;;;;;5.38;2.33;;;19.60;99.60;;;;;;5017634;28;20064;-88
2022/09/04 08:15:40;;;;;;;4.18;2.50;;;19.70;97.80;;;;;;4998632;28;20053;-92
2022/09/04 08:18:20;;;;;;;9.05;2.80;;;19.80;97.30;;;;;;4999825;28;20176;-92
2022/09/04 08:20:57;;;;;;;5.05;2.50;;;20.00;96.90;;;;;;5015452;28;20120;-91
2022/09/04 08:23:50;;;;;;;5.15;2.40;;;20.10;95.80;;;;;;4983397;28;20070;-90
2022/09/04 08:26:54;;;;;;;3.45;2.58;;;20.20;97.20;;;;;;4986372;28;20073;-92
2022/09/04 08:30:02;;;;;;;4.10;3.10;;;20.40;97.70;;;;;;5017342;28;20045;-89
2022/09/04 08:32:55;;;;;;;8.52;3.00;;;20.60;96.00;;;;;;5012079;28;20045;-92
2022/09/04 08:35:30;;;;;;;6.93;2.47;;;20.70;95.90;;;;;;5017938;28;20053;-90
2022/09/04 08:38:15;;;;;;;4.28;2.40;;;20.80;97.40;;;;;;5003203;28;20045;-91
2022/09/04 08:40:49;;;;;;;6.28;2.60;;;21.10;96.90;;;;;;5002862;28;20132;-90
2022/09/04 08:43:46;;;;;;;5.70;2.60;;;21.20;94.90;;;;;;5002349;28;20042;-92
2022/09/04 08:46:31;;;;;;;5.07;2.53;;;21.40;94.90;;;;;;5024449;28;20045;-90
2022/09/04 08:49:15;;;;;;;4.88;2.50;;;21.60;92.40;;;;;;5005473;28;20049;-92
2022/09/04 08:51:59;;;;;;;4.10;2.65;;;22.00;93.70;;;;;;5004786;28;20041;-92
2022/09/04 08:54:49;;;;;;;4.05;2.78;;;22.50;90.50;;;;;;5021882;28;20400;-91
2022/09/04 08:57:21;;;;;;;;;;;23.30;82.40;;;;;;5022004;28;20053;-90
2022/09/04 09:00:12;;;;;;;7.95;3.03;;;24.30;72.40;;;;;;4995221;28;19921;-91
2022/09/04 09:02:56;;;;;;;7.25;2.88;;;25.00;66.60;;;;;;5000958;28;20160;-89
2022/09/04 09:05:46;;;;;;;5.03;2.60;;;25.70;64.50;;;;;;5003584;28;20045;-89
2022/09/04 09:08:43;;;;;;;7.13;2.72;;;26.30;62.20;;;;;;5041778;28;20046;-88
2022/09/04 09:11:37;;;;;;;2.88;2.50;;;26.80;61.70;;;;;;5003565;28;20041;-91
2022/09/04 09:14:27;;;;;;;6.07;2.75;;;27.20;60.00;;;;;;4999898;28;20048;-89
2022/09/04 09:16:56;;;;;;;7.88;2.55;;;27.70;58.60;;;;;;4984661;28;20080;-88
2022/09/04 09:19:50;;;;;;;4.57;2.80;;;28.20;56.50;;;;;;4985454;28;20057;-88
2022/09/04 09:22:35;;;;;;;4.25;2.78;;;28.60;56.00;;;;;;5003694;28;20397;-89
2022/09/04 09:25:19;;;;;;;3.20;2.65;;;28.80;55.20;;;;;;5038146;28;20446;-89
2022/09/04 09:27:45;;;;;;;3.92;2.33;;;29.00;54.20;;;;;;5018846;28;20119;-89
2022/09/04 09:30:21;;;;;;;5.63;2.70;;;29.10;53.60;;;;;;5021188;28;20049;-89
2022/09/04 09:33:05;;;;;;;7.60;2.92;;;29.20;54.30;;;;;;5019810;28;20045;-89
2022/09/04 09:35:54;;;;;;;4.05;2.10;;;29.30;54.30;;;;;;5003145;28;20418;-88
2022/09/04 09:38:35;;;;;;;8.40;2.55;;;29.30;54.40;;;;;;5003028;28;20061;-90
2022/09/04 09:41:42;;;;;;;3.53;2.22;;;29.30;53.20;;;;;;5002997;28;20075;-89
2022/09/04 09:44:29;;;;;;;6.03;2.50;;;29.30;52.90;;;;;;5019198;28;20104;-90
2022/09/04 09:47:35;;;;;;;4.53;2.10;;;29.60;54.10;;;;;;5003520;28;20049;-90
2022/09/04 09:50:20;;;;;;;3.25;1.92;;;29.80;52.70;;;;;;5003661;28;20128;-94
2022/09/04 09:53:03;;;;;;;7.43;2.40;;;29.80;51.90;;;;;;5020319;28;20410;-89
2022/09/04 09:55:57;;;;;;;5.20;2.25;;;30.00;51.80;;;;;;5019569;28;20045;-89
2022/09/04 09:58:47;;;;;;;2.63;1.92;;;30.50;51.40;;;;;;5003674;28;20108;-92
2022/09/04 10:02:00;;;;;;;4.63;2.00;;;31.20;51.00;;;;;;5021559;28;20527;-89
2022/09/04 10:05:07;;;;;;;4.45;2.00;;;31.70;49.20;;;;;;5021851;28;20394;-93
2022/09/04 10:08:01;;;;;;;5.55;2.03;;;32.10;48.00;;;;;;5004510;28;20080;-89
2022/09/04 10:10:41;;;;;;;3.42;1.90;;;32.00;47.60;;;;;;5016201;28;20049;-90
2022/09/04 10:13:25;;;;;;;6.07;1.92;;;31.80;47.50;;;;;;5016141;28;20124;-90
2022/09/04 10:16:00;;;;;;;7.38;1.92;;;31.50;47.90;;;;;;5015894;28;20051;-94
2022/09/04 10:18:48;;;;;;;3.10;2.03;;;31.30;47.80;;;;;;4999937;28;20111;-88
2022/09/04 10:21:57;;;;;;;4.38;2.00;;;31.20;48.00;;;;;;4988544;28;20092;-91
2022/09/04 10:25:01;;;;;;;3.70;1.95;;;31.20;47.50;;;;;;5017204;28;20057;-89
2022/09/04 10:28:11;;;;;;;9.05;2.20;;;31.10;47.90;;;;;;4999631;28;20058;-90
2022/09/04 10:30:54;;;;;;;5.53;1.85;;;31.40;48.60;;;;;;4952931;28;20055;-96
2022/09/04 10:33:20;;;;;;;2.95;1.92;;;31.80;49.00;;;;;;4940423;29;20094;-89
2022/09/04 10:36:08;;;;;;;3.72;2.33;;;32.30;47.90;;;;;;4978719;28;20062;-90
2022/09/04 10:41:58;;;;;;;3.50;1.60;;;32.70;47.00;;;;;;5015593;28;20491;-88
2022/09/04 10:44:41;;;;;;;5.18;2.42;;;32.90;46.80;;;;;;5019851;28;20041;-89
2022/09/04 10:47:45;;;;;;;3.60;2.00;;;33.00;46.50;;;;;;5020360;28;20041;-88
2022/09/04 10:50:33;;;;;;;3.60;1.98;;;33.20;45.80;;;;;;4989723;28;20407;-89
2022/09/04 10:53:13;;;;;;;3.65;1.80;;;33.40;45.30;;;;;;5019389;28;20088;-89
2022/09/04 10:55:44;;;;;;;4.60;1.85;;;33.60;44.30;;;;;;5019114;28;20045;-91
2022/09/04 10:58:43;;;;;;;3.80;1.80;;;33.70;43.90;;;;;;5002250;28;20507;-89
2022/09/04 11:01:25;;;;;;;4.40;1.85;;;33.70;43.90;;;;;;5002793;28;20065;-88
2022/09/04 11:04:29;;;;;;;3.30;1.75;;;33.70;44.10;;;;;;5002860;28;20110;-89
2022/09/04 11:07:19;;;;;;;4.07;1.75;;;33.90;44.70;;;;;;5002545;28;20053;-91
2022/09/04 11:10:07;;;;;;;5.20;1.60;;;34.30;44.60;;;;;;5018548;28;20132;-89
2022/09/04 11:13:09;;;;;;;4.03;1.70;;;34.60;44.10;;;;;;5019331;28;20045;-88
2022/09/04 11:16:02;;;;;;;3.92;1.60;;;35.00;44.20;;;;;;5005263;28;20045;-88
2022/09/04 11:19:09;;;;;;;5.07;2.10;;;35.20;43.30;;;;;;5019837;28;20113;-87
2022/09/04 11:22:03;;;;;;;2.95;1.70;;;35.10;41.90;;;;;;5018139;28;20049;-94
2022/09/04 11:25:05;;;;;;;1.98;1.60;;;34.70;43.70;;;;;;5000951;28;20053;-89
2022/09/04 11:27:53;;;;;;;2.13;1.48;;;34.50;43.70;;;;;;5001993;28;20100;-93
2022/09/04 11:30:25;;;;;;;3.25;1.58;;;34.50;43.50;;;;;;5000655;28;20522;-91
2022/09/04 11:33:02;;;;;;;2.58;1.75;;;34.30;44.00;;;;;;5017795;28;20095;-88
2022/09/04 11:35:47;;;;;;;7.00;1.63;;;34.00;44.30;;;;;;5017829;28;20041;-89
2022/09/04 11:38:23;;;;;;;3.22;1.35;;;33.90;44.20;;;;;;5017587;28;20049;-89
2022/09/04 11:40:53;;;;;;;1.90;1.52;;;33.60;44.10;;;;;;5017949;28;20056;-88
2022/09/04 11:43:22;;;;;;;;;;;33.40;45.00;;;;;;5017177;28;20411;-89
2022/09/04 11:46:18;;;;;;;2.22;1.50;;;33.30;45.20;;;;;;5018344;28;19928;-87
2022/09/04 11:48:46;;;;;;;2.15;1.58;;;33.00;45.20;;;;;;5036289;28;20438;-91
2022/09/04 11:51:33;;;;;;;2.70;1.50;;;32.80;46.10;;;;;;5001987;28;20103;-89
2022/09/04 11:54:30;;;;;;;3.05;1.55;;;32.80;45.60;;;;;;5003781;28;20132;-89
2022/09/04 11:57:38;;;;;;;3.88;1.40;;;32.80;44.80;;;;;;5018577;28;20053;-91
2022/09/04 12:00:15;;;;;;;3.95;1.30;;;32.80;46.60;;;;;;5018099;28;20391;-90
2022/09/04 12:03:08;;;;;;;3.03;1.40;;;32.70;45.80;;;;;;5018296;28;20407;-90
2022/09/04 12:05:59;;;;;;;2.50;1.40;;;32.60;46.30;;;;;;5020104;28;20052;-89
2022/09/04 12:08:43;;;;;;;3.50;1.40;;;32.60;46.60;;;;;;5019303;28;20053;-90
2022/09/04 12:11:37;;;;;;;1.67;1.30;;;32.60;46.00;;;;;;5035634;28;20111;-91
2022/09/04 12:14:33;;;;;;;4.20;1.70;;;32.60;46.70;;;;;;5017880;28;20403;-88
2022/09/04 12:17:21;;;;;;;2.85;1.15;;;32.70;46.40;;;;;;5035768;28;20111;-89
2022/09/04 12:19:49;;;;;;;3.35;1.45;;;32.80;46.30;;;;;;5036695;28;20443;-87
2022/09/04 12:22:34;;;;;;;3.95;1.45;;;33.00;46.10;;;;;;5018438;28;20052;-87
2022/09/04 12:25:00;;;;;;;3.05;1.70;;;33.10;46.30;;;;;;5001332;28;20049;-89
2022/09/04 12:27:53;;;;;;;3.65;1.33;;;33.20;45.20;;;;;;5001135;28;20084;-87
2022/09/04 12:30:24;;;;;;;3.95;1.70;;;33.10;45.10;;;;;;5017629;28;20148;-92
2022/09/04 12:32:52;;;;;;;3.65;1.55;;;33.10;47.50;;;;;;5017199;28;20057;-89
2022/09/04 12:35:49;;;;;;;4.05;1.30;;;32.70;46.10;;;;;;5003391;28;20403;-91
2022/09/04 12:38:33;;;;;;;4.68;1.60;;;32.10;46.90;;;;;;5025383;28;20052;-88
2022/09/04 12:41:03;;;;;;;4.05;1.38;;;31.60;47.20;;;;;;5008036;28;20045;-90
2022/09/04 12:43:44;;;;;;;1.85;1.42;;;31.40;47.80;;;;;;5043583;28;20041;-87
2022/09/04 12:46:35;;;;;;;4.57;1.70;;;31.20;48.20;;;;;;5023755;28;20053;-88
2022/09/04 12:49:26;;;;;;;3.05;1.92;;;31.10;48.30;;;;;;4999514;28;20057;-87
2022/09/04 12:52:03;;;;;;;3.95;1.77;;;30.70;47.70;;;;;;5006680;28;20056;-91
2022/09/04 12:54:50;;;;;;;2.78;1.77;;;30.30;48.80;;;;;;5019313;28;20136;-88
2022/09/04 12:57:25;;;;;;;2.10;1.30;;;29.80;50.30;;;;;;5018610;28;20077;-90
2022/09/04 13:00:11;;;;;;;3.03;1.70;;;29.30;51.00;;;;;;5019706;28;20053;-89
2022/09/04 13:02:58;;;;;;;2.30;1.80;;;28.90;52.20;;;;;;5004685;28;20053;-89
2022/09/04 13:05:42;;;;;;;4.47;1.70;;;28.60;53.60;;;;;;5016681;28;20566;-90
2022/09/04 13:08:22;;;;;;;5.78;1.65;;;28.50;54.70;;;;;;5000355;28;20080;-87
2022/09/04 13:11:12;;;;;;;3.42;1.70;;;28.50;53.50;;;;;;5034050;28;20143;-88
2022/09/04 13:14:04;;;;;;;2.10;1.60;;;28.50;53.90;;;;;;5000436;28;20487;-87
2022/09/04 13:16:43;;;;;;;4.15;2.30;;;28.50;54.00;;;;;;5016555;28;20494;-89
2022/09/04 13:19:27;;;;;;;4.00;1.55;;;28.50;53.00;;;;;;5000616;28;20049;-90
2022/09/04 13:22:24;;;;;;;2.10;1.83;;;28.40;54.20;;;;;;5000794;28;20045;-88
2022/09/04 13:25:01;;;;;;;3.20;1.63;;;28.40;53.40;;;;;;4974950;28;20057;-88
2022/09/04 13:27:29;;;;;;;2.97;1.65;;;28.40;53.70;;;;;;5000516;28;20045;-88
2022/09/04 13:30:06;;;;;;;3.78;1.52;;;28.50;53.90;;;;;;5016029;28;20041;-87
2022/09/04 13:32:59;;;;;;;4.78;1.88;;;28.50;54.10;;;;;;5017025;28;20057;-91
2022/09/04 13:35:48;;;;;;;4.05;1.67;;;28.60;53.90;;;;;;5033740;28;20091;-90
2022/09/04 13:38:40;;;;;;;3.55;2.10;;;28.70;55.00;;;;;;5000245;28;20049;-87
2022/09/04 13:41:12;;;;;;;2.78;1.55;;;28.70;53.00;;;;;;5000120;28;20053;-88
2022/09/04 13:44:19;;;;;;;3.80;1.80;;;28.80;53.70;;;;;;5000211;28;20470;-86
2022/09/04 13:46:58;;;;;;;4.18;2.13;;;28.90;53.20;;;;;;5000237;28;20084;-87
2022/09/04 13:49:37;;;;;;;3.00;1.80;;;28.70;52.70;;;;;;5017435;28;20050;-89
2022/09/04 13:52:12;;;;;;;3.03;1.65;;;28.50;53.20;;;;;;5000011;28;20041;-89
2022/09/04 13:55:00;;;;;;;5.15;1.90;;;28.40;54.20;;;;;;5017765;28;20467;-86
2022/09/04 13:57:30;;;;;;;4.50;1.77;;;28.50;53.80;;;;;;5033896;28;20041;-88
2022/09/04 14:00:01;;;;;;;3.83;1.63;;;28.40;54.50;;;;;;5015824;28;20140;-88
2022/09/04 14:02:30;;;;;;;3.65;1.73;;;28.40;54.50;;;;;;5016932;28;20045;-87
2022/09/04 14:05:07;;;;;;;2.15;1.90;;;28.30;54.10;;;;;;5035845;28;20052;-88
2022/09/04 14:07:36;;;;;;;5.63;1.80;;;28.30;54.10;;;;;;5003050;28;20049;-87
2022/09/04 14:10:40;;;;;;;5.72;2.17;;;28.30;54.60;;;;;;5020162;28;20053;-88
2022/09/04 14:13:30;;;;;;;2.95;2.03;;;28.40;54.50;;;;;;4949900;28;20056;-88
2022/09/04 14:16:05;;;;;;;3.70;2.20;;;28.40;54.00;;;;;;5042423;28;20107;-88
2022/09/04 14:18:36;;;;;;;2.88;2.20;;;28.40;54.30;;;;;;5025411;28;20382;-87
2022/09/04 14:21:23;;;;;;;2.40;1.83;;;28.50;53.30;;;;;;5011068;28;20049;-89
2022/09/04 14:24:07;;;;;;;2.47;2.28;;;28.40;53.90;;;;;;5025669;28;20557;-88
2022/09/04 14:26:38;;;;;;;3.35;1.90;;;28.50;52.50;;;;;;5008013;28;20049;-87